Broken Arrow, OK (74012)

11:24 AM CST on January 24, 2017 (GMT -0600)
Country Aire | | Change Station
Active Advisory: Fire Weather Warning

Elev 697 ft 36.05 °N, 95.82 °W | Updated 1 second ago

Clear
Clear
63.2 °F
Feels Like 63.2 °F
N
8.0
Wind Variable Wind from South
Gusts 17.0 mph

Today
High -- | Low -- °F
--% Chance of Precip.
Yesterday
High -- | Low -- °F
Precip. -- in
Pressure 29.62 in
Visibility 10.0 miles
Clouds Clear
Dew Point 42 °F
Humidity 46%
Rainfall 0.00 in
Snow Depth Not available.
7:29 AM 5:42 PM
Waning Crescent, 11% visible
METAR KRVS 241653Z 18010KT 10SM CLR 17/02 A2961 RMK AO2 SLP029 T01720022
Pressure 29.62 in
Visibility 10.0 miles
Clouds Clear
Dew Point 42 °F
Humidity 46%
Rainfall 0.00 in
Snow Depth Not available.
7:29 AM 5:42 PM
Waning Crescent, 11% visible
METAR KRVS 241653Z 18010KT 10SM CLR 17/02 A2961 RMK AO2 SLP029 T01720022

Get Your Daily Forecast Email!

Thanks for signing up!

Be on the lookout for a verification email in your inbox.

You'll start receiving the daily forecast at 8 AM.

×

10-Day Weather Forecast

Almanac

Astronomy

Jan. 24, 2017 Rise Set
Actual Time
Civil Twilight
Nautical Twilight
Astronomical Twilight
Moon
Length of Visible Light
Length of Day
Tomorrow will be .
, % of the Moon is Illuminated

Today's Extremes

State Highs State Lows

Community

WunderPhotos

Upload Photos

1,962,540 photos uploaded!

WunderBlog® & News

Nearby

Air Quality

  Air Quality AQ Index Pollutant
Not available.

Snow Depth

Station Depth Elevation

Earthquake Activity

City Distance Mag. Time & Date
Minimum magnitude displayed is 2.5.

Coastal Water Temperatures

Place Temperature

Stations

Nearby Weather Stations

Station Location Temp. Windchill Dew Point Humidity Wind Precip. Elev Updated Type
                   

Watches & Warnings

Fire Weather Warning
Issued: 3:10 AM CST Jan. 24, 2017 – National Weather Service

... Red flag warning in effect from noon today to 7 PM CST this
evening for very dry and windy conditions for locations along and
west of Highway 75 across northeast Oklahoma...

The National Weather Service in Tulsa has issued a red flag
warning... which is in effect from noon today to 7 PM CST this
evening.

* Affected area... in Oklahoma, Osage, Washington, Pawnee, Tulsa,
creek, Okfuskee, and Okmulgee counties.

* Wind... south to southwest winds 20 to 30 mph with gusts near 40
mph.

* Humidity... around 20 percent from mid to late afternoon.

* Temperature... highs in the low to mid 70s.

* Impacts... any fires that develop will likely spread rapidly.
Outdoor burning is not recommended.

Precautionary/preparedness actions...

Report any fires immediately to local officials.

A red flag warning means that a dangerous combination of weather
conditions and dry vegetation is expected within 24 hours,
favoring rapid growth and spread of any wildfires. The primary
weather factors include stronger winds, lower humidities, and
warmer temperatures.